New Haven, Kentucky
Current Conditions -  °F | °C
As of 3:58 AM on Thursday 23 Oct 2014 (Local Time) from KFTK Reporting Station
Clear Clear  
Wind Chill: 37°   Ceiling: Unl
Heat Index: 41°   Visibility: 10mi
Dew Point: 39°   Wind: 6mph
Humidity: 91%   Direction: 20°NNE
Pressure: 30.24"   Gusts: NA
Location:  37.66°N, 85.59°W
Report Text: KFTK 230758Z AUTO 02005KT 10SM CLR 05/04 A3024 RMK AO2 SLP245 T00510037
Loading
Personal Weather Stations






























Interactive Weather Map
Tropical Storm Tracking
New forecast layout! Learn more

10-Day Weather Forecast

Advertisements
Track Severe Weather on mobile